Time;durP1;ratioP1;P1;durP2;ratioP2;P2;SDS_P1;SDS_P2;PMS_P1;PMS_P2;Temp;Humidity;BMP_temperature;BMP_pressure;BME280_temperature;BME280_humidity;BME280_pressure;Samples;Min_cycle;Max_cycle;Signal;HPM_P1;HPM_P2
2022/08/22 00:01:01;;;;;;;6.03;2.80;;;16.60;99.90;;;;;;5018285;28;20077;-72
2022/08/22 00:03:46;;;;;;;5.38;2.22;;;16.60;99.90;;;;;;5036478;28;20125;-72
2022/08/22 00:06:23;;;;;;;8.25;3.50;;;16.50;99.90;;;;;;5054908;28;20388;-72
2022/08/22 00:09:10;;;;;;;5.68;2.22;;;16.50;99.90;;;;;;5053382;28;20037;-72
2022/08/22 00:12:04;;;;;;;8.07;2.30;;;16.50;99.90;;;;;;5041640;28;20389;-72
2022/08/22 00:14:45;;;;;;;8.02;3.10;;;16.40;99.90;;;;;;5034496;28;20537;-72
2022/08/22 00:17:13;;;;;;;6.38;2.60;;;16.30;99.90;;;;;;5018008;28;20135;-71
2022/08/22 00:20:00;;;;;;;8.35;2.80;;;16.30;99.90;;;;;;5035192;28;20037;-71
2022/08/22 00:22:47;;;;;;;6.18;2.58;;;16.20;99.90;;;;;;5033786;28;20044;-71
2022/08/22 00:25:21;;;;;;;7.15;2.63;;;16.10;99.90;;;;;;5034479;28;20513;-72
2022/08/22 00:27:55;;;;;;;7.13;2.40;;;16.10;99.90;;;;;;5033858;28;20060;-71
2022/08/22 00:30:21;;;;;;;7.63;2.83;;;16.00;99.90;;;;;;5085248;28;20029;-72
2022/08/22 00:32:51;;;;;;;6.53;3.03;;;16.10;99.90;;;;;;5034511;28;20565;-72
2022/08/22 00:35:34;;;;;;;6.28;2.55;;;16.00;99.90;;;;;;5017961;28;20410;-71
2022/08/22 00:38:25;;;;;;;6.07;2.47;;;16.00;99.90;;;;;;5019958;28;20033;-71
2022/08/22 00:41:29;;;;;;;6.30;2.53;;;16.00;99.90;;;;;;5037519;28;20044;-72
2022/08/22 00:44:06;;;;;;;8.18;2.78;;;16.00;99.90;;;;;;5054235;28;20098;-71
2022/08/22 00:46:44;;;;;;;10.57;2.80;;;16.00;99.90;;;;;;5054182;28;20045;-71
2022/08/22 00:49:41;;;;;;;7.10;3.10;;;16.00;99.90;;;;;;5044513;28;20040;-72
2022/08/22 00:52:17;;;;;;;7.68;2.85;;;15.90;99.90;;;;;;5054031;28;20389;-71
2022/08/22 00:55:07;;;;;;;6.68;2.72;;;15.90;99.90;;;;;;5054086;28;20140;-71
2022/08/22 00:57:53;;;;;;;6.32;2.45;;;15.90;99.90;;;;;;5038493;28;20073;-72
2022/08/22 01:00:29;;;;;;;8.25;2.60;;;15.90;99.90;;;;;;5061258;28;20099;-72
2022/08/22 01:03:03;;;;;;;5.97;2.55;;;15.90;99.90;;;;;;5033204;28;20397;-71
2022/08/22 01:05:46;;;;;;;7.68;2.85;;;15.80;99.90;;;;;;5017060;28;20065;-72
2022/08/22 01:08:46;;;;;;;6.60;2.65;;;15.90;99.90;;;;;;5017167;28;20121;-72
2022/08/22 01:11:48;;;;;;;8.45;3.17;;;15.90;99.90;;;;;;5045585;28;20051;-72
2022/08/22 01:14:20;;;;;;;4.45;2.42;;;15.90;99.90;;;;;;5036731;28;20129;-72
2022/08/22 01:16:58;;;;;;;5.18;2.20;;;15.80;99.90;;;;;;5053371;28;20045;-72
2022/08/22 01:19:48;;;;;;;7.00;2.95;;;15.90;99.90;;;;;;5022626;28;20478;-72
2022/08/22 01:22:29;;;;;;;5.30;2.70;;;16.00;99.90;;;;;;5033169;28;20505;-71
2022/08/22 01:25:25;;;;;;;5.63;2.83;;;16.00;99.90;;;;;;5047573;28;20036;-71
2022/08/22 01:28:39;;;;;;;8.13;3.00;;;16.00;99.90;;;;;;5051694;28;20127;-71
2022/08/22 01:31:43;;;;;;;5.82;2.58;;;15.90;99.90;;;;;;4998647;28;20088;-72
2022/08/22 01:34:39;;;;;;;7.10;2.80;;;15.80;99.90;;;;;;5069560;28;20095;-71
2022/08/22 01:37:27;;;;;;;7.28;2.80;;;15.80;99.90;;;;;;5052835;28;20095;-71
2022/08/22 01:40:17;;;;;;;5.13;2.40;;;15.80;99.90;;;;;;5051448;28;20086;-71
2022/08/22 01:43:13;;;;;;;5.57;2.35;;;15.90;99.90;;;;;;5052836;28;20044;-70
2022/08/22 01:46:19;;;;;;;5.65;2.45;;;16.00;99.90;;;;;;5036434;28;20043;-71
2022/08/22 01:48:55;;;;;;;6.00;2.60;;;16.00;99.90;;;;;;5048792;28;20513;-71
2022/08/22 01:51:24;;;;;;;5.70;2.33;;;16.00;99.90;;;;;;5046628;28;20049;-70
2022/08/22 01:54:09;;;;;;;6.90;2.60;;;16.00;99.90;;;;;;5048516;28;20033;-70
2022/08/22 01:56:41;;;;;;;7.32;2.88;;;16.00;99.90;;;;;;5032614;28;20048;-70
2022/08/22 01:59:13;;;;;;;6.38;2.65;;;16.00;99.90;;;;;;5023857;28;20111;-70
2022/08/22 02:01:39;;;;;;;;;;;15.90;99.90;;;;;;5030805;28;20037;-71
2022/08/22 02:04:38;;;;;;;5.18;2.38;;;15.90;99.90;;;;;;5052320;28;20047;-71
2022/08/22 02:07:25;;;;;;;4.00;2.30;;;15.90;99.90;;;;;;5001350;28;20053;-71
2022/08/22 02:10:47;;;;;;;5.28;2.38;;;15.90;99.90;;;;;;5068192;28;20524;-71
2022/08/22 02:13:42;;;;;;;5.55;2.47;;;15.80;99.90;;;;;;4978055;28;20537;-72
2022/08/22 02:16:13;;;;;;;4.72;2.42;;;15.80;99.90;;;;;;5011625;28;20084;-71
2022/08/22 02:18:57;;;;;;;4.55;2.30;;;15.90;99.90;;;;;;5041291;28;20045;-71
2022/08/22 02:21:30;;;;;;;4.47;2.45;;;15.90;99.90;;;;;;5019395;28;20037;-70
2022/08/22 02:24:12;;;;;;;5.22;2.20;;;15.80;99.90;;;;;;5065460;28;20048;-71
2022/08/22 02:27:09;;;;;;;7.03;2.47;;;15.80;99.90;;;;;;5020994;28;20033;-71
2022/08/22 02:29:41;;;;;;;4.95;2.30;;;15.70;99.90;;;;;;5051440;28;20099;-71
2022/08/22 02:32:22;;;;;;;7.15;2.42;;;15.70;99.90;;;;;;5065603;28;20132;-71
2022/08/22 02:35:05;;;;;;;6.38;2.55;;;15.80;99.90;;;;;;5032499;28;20088;-72
2022/08/22 02:38:00;;;;;;;6.03;2.53;;;15.70;99.90;;;;;;5067617;28;20493;-71
2022/08/22 02:40:42;;;;;;;5.75;2.45;;;15.80;99.90;;;;;;5023734;28;20038;-72
2022/08/22 02:43:21;;;;;;;5.20;2.20;;;15.70;99.90;;;;;;5057813;28;20082;-71
2022/08/22 02:46:12;;;;;;;4.72;2.30;;;15.70;99.90;;;;;;5027211;28;20572;-72
2022/08/22 02:49:03;;;;;;;6.60;2.55;;;15.60;99.90;;;;;;5032270;28;20450;-71
2022/08/22 02:51:46;;;;;;;5.88;2.70;;;15.60;99.90;;;;;;5010692;28;20057;-72
2022/08/22 02:54:25;;;;;;;6.93;2.90;;;15.50;99.90;;;;;;5041084;28;20115;-72
2022/08/22 02:56:59;;;;;;;6.00;2.60;;;15.40;99.90;;;;;;5048668;28;20559;-72
2022/08/22 02:59:31;;;;;;;5.55;2.30;;;15.30;99.90;;;;;;5032716;28;20075;-72
2022/08/22 03:02:18;;;;;;;5.22;2.00;;;15.30;99.90;;;;;;5049743;28;20071;-71
2022/08/22 03:04:49;;;;;;;3.13;1.80;;;15.30;99.90;;;;;;5033802;28;20037;-71
2022/08/22 03:07:30;;;;;;;4.93;1.90;;;15.30;99.90;;;;;;5052221;28;20073;-71
2022/08/22 03:10:12;;;;;;;5.00;2.13;;;15.30;99.90;;;;;;5049936;28;20428;-71
2022/08/22 03:12:50;;;;;;;6.22;2.70;;;15.20;99.90;;;;;;5049909;28;20123;-71
2022/08/22 03:15:22;;;;;;;7.45;2.28;;;15.20;99.90;;;;;;5044101;28;20379;-71
2022/08/22 03:18:11;;;;;;;2.97;1.42;;;15.10;99.90;;;;;;5046205;28;20033;-71
2022/08/22 03:20:40;;;;;;;2.30;1.25;;;15.10;99.90;;;;;;5051058;28;20481;-71
2022/08/22 03:23:19;;;;;;;6.15;2.38;;;15.10;99.90;;;;;;5048437;28;20040;-71
2022/08/22 03:26:05;;;;;;;6.93;2.70;;;15.00;99.90;;;;;;5069560;28;20059;-71
2022/08/22 03:28:50;;;;;;;6.35;2.50;;;15.00;99.90;;;;;;5035377;28;20049;-71
2022/08/22 03:31:21;;;;;;;6.25;3.10;;;15.00;99.90;;;;;;5046131;28;20474;-71
2022/08/22 03:34:21;;;;;;;6.75;3.00;;;15.00;99.90;;;;;;5032343;28;20388;-71
2022/08/22 03:37:06;;;;;;;6.10;3.08;;;15.00;99.90;;;;;;5035928;28;20402;-71
2022/08/22 03:39:48;;;;;;;3.75;1.42;;;15.00;99.90;;;;;;5049078;28;20037;-71
2022/08/22 03:42:34;;;;;;;2.22;1.20;;;15.10;99.90;;;;;;5044585;28;20040;-71
2022/08/22 03:45:38;;;;;;;1.98;0.90;;;15.20;99.90;;;;;;5056709;28;20038;-70
2022/08/22 03:48:42;;;;;;;1.48;1.00;;;15.20;99.90;;;;;;5059908;28;20033;-70
2022/08/22 03:51:20;;;;;;;1.65;1.20;;;15.20;99.90;;;;;;5038327;28;20041;-71
2022/08/22 03:53:51;;;;;;;4.15;1.80;;;15.20;99.90;;;;;;5053009;28;20386;-71
2022/08/22 03:56:32;;;;;;;3.75;1.80;;;15.20;99.90;;;;;;5038107;28;20053;-71
2022/08/22 03:59:18;;;;;;;3.85;1.30;;;15.20;99.90;;;;;;5058080;28;20044;-70
2022/08/22 04:01:46;;;;;;;4.97;2.00;;;15.20;99.90;;;;;;5038520;28;20052;-71
2022/08/22 04:04:18;;;;;;;4.72;2.00;;;15.10;99.90;;;;;;5053704;28;20037;-70
2022/08/22 04:07:17;;;;;;;3.60;1.90;;;15.00;99.90;;;;;;5037950;28;20051;-71
2022/08/22 04:09:58;;;;;;;5.68;2.40;;;15.00;99.90;;;;;;5017156;28;20053;-71
2022/08/22 04:12:46;;;;;;;2.55;1.20;;;15.00;99.90;;;;;;5054450;28;20045;-71
2022/08/22 04:15:44;;;;;;;3.13;1.23;;;15.00;99.90;;;;;;5062328;28;20459;-71
2022/08/22 04:18:15;;;;;;;3.05;1.20;;;15.10;99.90;;;;;;5046658;28;20045;-71
2022/08/22 04:21:02;;;;;;;3.22;1.70;;;15.10;99.90;;;;;;5037780;28;20045;-71
2022/08/22 04:23:33;;;;;;;3.50;1.75;;;15.10;99.90;;;;;;5051676;28;20087;-71
2022/08/22 04:26:20;;;;;;;3.97;1.20;;;15.10;99.90;;;;;;5056785;28;20041;-71
2022/08/22 04:29:04;;;;;;;3.03;1.50;;;15.10;99.90;;;;;;5062603;28;20079;-71
2022/08/22 04:31:40;;;;;;;4.13;1.60;;;15.10;99.90;;;;;;5052128;28;20033;-71
2022/08/22 04:34:24;;;;;;;4.53;1.40;;;15.20;99.90;;;;;;5032664;28;20029;-71
2022/08/22 04:36:58;;;;;;;2.80;1.60;;;15.10;99.90;;;;;;5033134;28;20030;-71
2022/08/22 04:39:48;;;;;;;5.57;1.88;;;15.00;99.90;;;;;;5054859;28;20041;-71
2022/08/22 04:42:20;;;;;;;3.45;1.63;;;15.10;99.90;;;;;;5063970;28;20087;-71
2022/08/22 04:44:58;;;;;;;2.90;1.30;;;15.10;99.90;;;;;;5018568;28;20124;-71
2022/08/22 04:47:50;;;;;;;2.45;1.50;;;15.10;99.90;;;;;;5041488;28;20041;-70
2022/08/22 04:50:30;;;;;;;2.80;1.30;;;15.20;99.90;;;;;;5057022;28;20048;-71
2022/08/22 04:53:01;;;;;;;3.75;1.30;;;15.20;99.90;;;;;;5053652;28;20501;-70
2022/08/22 04:55:39;;;;;;;5.65;1.80;;;15.20;99.90;;;;;;5035511;28;20041;-71
2022/08/22 04:58:20;;;;;;;3.15;1.50;;;15.10;99.90;;;;;;5034528;28;20493;-71
2022/08/22 05:01:14;;;;;;;3.95;1.60;;;15.10;99.90;;;;;;5033824;28;20099;-71
2022/08/22 05:04:04;;;;;;;4.30;1.73;;;15.10;99.90;;;;;;5057814;28;20042;-71
2022/08/22 05:06:35;;;;;;;3.20;1.48;;;15.00;99.90;;;;;;5017356;28;20481;-71
2022/08/22 05:09:06;;;;;;;3.40;1.60;;;15.00;99.90;;;;;;5048880;28;20079;-71
2022/08/22 05:11:35;;;;;;;3.38;1.67;;;14.90;99.90;;;;;;5047281;28;20511;-71
2022/08/22 05:14:12;;;;;;;3.15;1.85;;;14.90;99.90;;;;;;5050363;28;20432;-71
2022/08/22 05:16:42;;;;;;;3.30;1.80;;;15.00;99.90;;;;;;5027748;28;20472;-71
2022/08/22 05:19:22;;;;;;;5.20;1.70;;;15.00;99.90;;;;;;5044472;28;20063;-71
2022/08/22 05:21:49;;;;;;;3.22;1.90;;;15.00;99.90;;;;;;5031579;28;20044;-71
2022/08/22 05:24:30;;;;;;;4.30;2.08;;;15.00;99.90;;;;;;5037187;28;20091;-71
2022/08/22 05:27:00;;;;;;;3.28;1.77;;;14.90;99.90;;;;;;5049943;28;20057;-71
2022/08/22 05:29:31;;;;;;;5.50;2.17;;;15.00;99.90;;;;;;5050256;28;20052;-71
2022/08/22 05:32:04;;;;;;;5.07;2.28;;;15.00;99.90;;;;;;5064955;28;20096;-71
2022/08/22 05:34:36;;;;;;;4.28;1.50;;;15.10;99.90;;;;;;5039761;28;20090;-72
2022/08/22 05:37:10;;;;;;;3.70;1.70;;;15.20;99.90;;;;;;5029542;28;20065;-72
2022/08/22 05:39:39;;;;;;;3.08;1.60;;;15.20;99.90;;;;;;5048022;28;20465;-71
2022/08/22 05:42:12;;;;;;;3.30;1.70;;;15.30;99.90;;;;;;5039635;28;20037;-71
2022/08/22 05:44:38;;;;;;;6.40;2.20;;;15.30;99.90;;;;;;5045213;28;20033;-72
2022/08/22 05:47:38;;;;;;;5.88;2.50;;;15.30;99.90;;;;;;5046130;28;20532;-72
2022/08/22 05:50:16;;;;;;;6.03;2.80;;;15.30;99.90;;;;;;5020552;28;20032;-71
2022/08/22 05:52:45;;;;;;;6.97;2.72;;;15.30;99.90;;;;;;5041243;28;20045;-72
2022/08/22 05:55:29;;;;;;;9.00;3.72;;;15.30;99.90;;;;;;5049335;28;20037;-72
2022/08/22 05:58:15;;;;;;;7.13;3.55;;;15.40;99.90;;;;;;5049576;28;20291;-72
2022/08/22 06:00:46;;;;;;;13.23;4.55;;;15.40;99.90;;;;;;5048674;28;20084;-72
2022/08/22 06:03:35;;;;;;;8.75;3.55;;;15.40;99.90;;;;;;5066764;28;20041;-72
2022/08/22 06:06:09;;;;;;;8.38;3.33;;;15.50;99.90;;;;;;5052794;28;20079;-71
2022/08/22 06:08:41;;;;;;;8.48;4.10;;;15.50;99.90;;;;;;5048203;28;20033;-71
2022/08/22 06:11:24;;;;;;;8.60;4.05;;;15.60;99.90;;;;;;5048194;28;20098;-71
2022/08/22 06:14:18;;;;;;;8.75;4.18;;;15.60;99.90;;;;;;5029336;28;20517;-71
2022/08/22 06:17:02;;;;;;;8.15;4.10;;;15.80;99.90;;;;;;5041876;28;20056;-72
2022/08/22 06:19:28;;;;;;;10.95;5.30;;;15.80;99.90;;;;;;5035661;28;20087;-71
2022/08/22 06:21:56;;;;;;;10.27;5.25;;;15.80;99.90;;;;;;5041686;28;20037;-72
2022/08/22 06:24:25;;;;;;;9.50;4.18;;;15.90;99.90;;;;;;5049512;28;20116;-72
2022/08/22 06:26:55;;;;;;;9.18;4.10;;;15.90;99.90;;;;;;5048817;28;20083;-72
2022/08/22 06:29:41;;;;;;;11.05;5.00;;;16.00;99.90;;;;;;5023357;28;20049;-71
2022/08/22 06:32:12;;;;;;;13.00;5.20;;;16.10;99.90;;;;;;5048886;28;20040;-71
2022/08/22 06:34:41;;;;;;;10.85;5.15;;;16.10;99.90;;;;;;5042283;28;20045;-72
2022/08/22 06:37:19;;;;;;;11.23;5.55;;;16.10;99.90;;;;;;5029648;28;20088;-72
2022/08/22 06:39:49;;;;;;;10.73;5.20;;;16.30;99.90;;;;;;5033050;28;20041;-72
2022/08/22 06:42:27;;;;;;;13.07;5.63;;;16.30;99.90;;;;;;5043160;28;20116;-71
2022/08/22 06:44:58;;;;;;;11.48;5.97;;;16.40;99.90;;;;;;5054546;28;20052;-72
2022/08/22 06:47:29;;;;;;;13.32;5.68;;;16.50;99.90;;;;;;5066702;28;20049;-72
2022/08/22 06:50:07;;;;;;;13.60;6.30;;;16.60;99.90;;;;;;5032322;28;20098;-71
2022/08/22 06:52:51;;;;;;;13.60;6.00;;;16.50;99.90;;;;;;5031535;28;20046;-71
2022/08/22 06:55:17;;;;;;;9.73;5.20;;;16.60;99.90;;;;;;5036048;28;20075;-71
2022/08/22 06:57:51;;;;;;;10.25;4.75;;;16.70;99.90;;;;;;5034883;28;20036;-71
2022/08/22 07:00:18;;;;;;;10.77;5.50;;;16.80;99.90;;;;;;5034214;28;20040;-71
2022/08/22 07:03:13;;;;;;;10.23;5.10;;;16.80;99.90;;;;;;5054864;28;20047;-71
2022/08/22 07:05:41;;;;;;;13.20;5.00;;;16.80;99.90;;;;;;5051138;28;20124;-71
2022/08/22 07:08:12;;;;;;;10.15;6.00;;;16.90;99.90;;;;;;5046173;28;20494;-70
2022/08/22 07:10:57;;;;;;;11.05;5.35;;;16.90;99.90;;;;;;5046316;28;20044;-70
2022/08/22 07:13:25;;;;;;;11.15;5.50;;;16.90;99.90;;;;;;5051851;28;20055;-70
2022/08/22 07:15:54;;;;;;;13.00;5.97;;;17.00;99.90;;;;;;5045173;28;20055;-71
2022/08/22 07:18:23;;;;;;;13.00;6.15;;;17.10;99.90;;;;;;5038862;28;20063;-71
2022/08/22 07:21:03;;;;;;;16.52;6.93;;;17.10;99.90;;;;;;5054561;28;20037;-71
2022/08/22 07:23:39;;;;;;;10.40;5.00;;;17.20;99.90;;;;;;5035436;28;20414;-71
2022/08/22 07:26:26;;;;;;;12.65;5.30;;;17.20;99.90;;;;;;5058482;28;20102;-71
2022/08/22 07:29:11;;;;;;;12.68;4.90;;;17.30;99.90;;;;;;5038345;28;20036;-71
2022/08/22 07:31:50;;;;;;;14.65;4.75;;;17.40;99.90;;;;;;5037393;28;20091;-71
2022/08/22 07:34:36;;;;;;;10.93;4.22;;;17.40;99.90;;;;;;5053897;28;20041;-71
2022/08/22 07:37:22;;;;;;;13.10;4.07;;;17.50;99.90;;;;;;5054165;28;20048;-71
2022/08/22 07:40:06;;;;;;;13.55;4.32;;;17.50;99.90;;;;;;5014657;28;20080;-71
2022/08/22 07:42:47;;;;;;;12.15;4.22;;;17.60;99.90;;;;;;5030000;28;20424;-71
2022/08/22 07:45:23;;;;;;;14.23;5.32;;;17.80;99.90;;;;;;5036258;28;20060;-69
2022/08/22 07:48:07;;;;;;;12.85;4.90;;;17.90;99.90;;;;;;5041600;28;20045;-75
2022/08/22 07:50:41;;;;;;;14.70;4.95;;;17.90;99.90;;;;;;5041704;28;20444;-71
2022/08/22 07:53:27;;;;;;;12.50;4.45;;;18.10;99.90;;;;;;5070091;28;20044;-71
2022/08/22 07:55:55;;;;;;;10.68;4.32;;;18.10;99.90;;;;;;5030856;28;20092;-71
2022/08/22 07:58:23;;;;;;;13.18;4.30;;;18.20;99.90;;;;;;5049822;28;20389;-71
2022/08/22 08:00:50;;;;;;;14.32;5.38;;;18.20;99.90;;;;;;5040658;28;20506;-71
2022/08/22 08:03:19;;;;;;;13.05;4.35;;;18.20;99.90;;;;;;5031702;28;20048;-71
2022/08/22 08:05:45;;;;;;;11.93;4.55;;;18.20;99.90;;;;;;5051217;28;20036;-71
2022/08/22 08:08:46;;;;;;;10.63;3.80;;;18.30;99.90;;;;;;5068450;28;20040;-71
2022/08/22 08:11:15;;;;;;;13.88;4.47;;;18.30;99.90;;;;;;5020660;28;20133;-71
2022/08/22 08:13:43;;;;;;;12.48;3.78;;;18.40;99.90;;;;;;5049702;28;20061;-71
2022/08/22 08:16:16;;;;;;;10.02;3.40;;;18.50;99.90;;;;;;5075994;28;20049;-71
2022/08/22 08:18:47;;;;;;;11.30;3.75;;;18.50;99.90;;;;;;5052000;28;20037;-71
2022/08/22 08:21:36;;;;;;;14.73;4.93;;;18.60;99.90;;;;;;5059576;28;20489;-71
2022/08/22 08:24:05;;;;;;;14.88;3.63;;;18.60;99.90;;;;;;5033066;28;20091;-71
2022/08/22 08:28:32;;;;;;;14.00;3.80;;;18.70;99.90;;;;;;5028261;28;20568;-71
2022/08/22 08:29:31;;;;;;;12.05;3.67;;;18.80;99.90;;;;;;5033956;28;20052;-71
2022/08/22 08:31:59;;;;;;;11.27;3.88;;;18.80;99.90;;;;;;5053606;28;20063;-71
2022/08/22 08:34:26;;;;;;;10.55;4.30;;;18.80;99.90;;;;;;5034926;28;20052;-71
2022/08/22 08:36:53;;;;;;;10.52;3.40;;;18.90;99.90;;;;;;5059696;28;20489;-71
2022/08/22 08:39:42;;;;;;;13.48;4.13;;;18.90;99.90;;;;;;5024520;28;20540;-71
2022/08/22 08:46:01;;;;;;;10.95;3.15;;;19.00;99.90;;;;;;5033953;28;20045;-71
2022/08/22 08:48:42;;;;;;;12.82;3.92;;;19.10;99.90;;;;;;5033070;28;20037;-71
2022/08/22 08:51:24;;;;;;;10.27;4.00;;;19.30;99.90;;;;;;5038846;28;20432;-71
2022/08/22 08:53:56;;;;;;;11.02;3.35;;;19.50;99.90;;;;;;5037269;28;20543;-71
2022/08/22 08:56:31;;;;;;;13.60;3.85;;;19.50;99.90;;;;;;5059478;28;20041;-71
2022/08/22 08:59:30;;;;;;;14.93;4.18;;;19.60;99.90;;;;;;5046759;28;20033;-71
2022/08/22 09:02:28;;;;;;;12.30;3.67;;;19.80;99.90;;;;;;5048757;28;20076;-71
2022/08/22 09:05:21;;;;;;;12.50;3.70;;;19.90;99.90;;;;;;5033087;28;20478;-71
2022/08/22 09:07:59;;;;;;;15.13;3.92;;;20.00;99.90;;;;;;5037592;28;20099;-71
2022/08/22 09:11:09;;;;;;;12.15;4.65;;;20.00;99.90;;;;;;5037079;28;20123;-71
2022/08/22 09:14:07;;;;;;;10.90;3.40;;;19.90;99.90;;;;;;5038041;28;20128;-71
2022/08/22 09:16:34;;;;;;;13.80;3.70;;;19.90;99.90;;;;;;5057886;28;20072;-71
2022/08/22 09:19:23;;;;;;;10.63;2.80;;;20.00;99.90;;;;;;5029929;28;20124;-71
2022/08/22 09:22:30;;;;;;;14.40;3.13;;;20.10;99.90;;;;;;5032443;28;20045;-71
2022/08/22 09:25:21;;;;;;;13.77;3.75;;;20.30;99.90;;;;;;4992406;28;20129;-71
2022/08/22 09:28:01;;;;;;;10.75;3.90;;;20.40;99.90;;;;;;4995131;28;20045;-71
2022/08/22 09:31:09;;;;;;;12.00;3.40;;;20.50;99.90;;;;;;5017130;28;20092;-71
2022/08/22 09:33:48;;;;;;;14.52;3.38;;;20.50;99.90;;;;;;5050923;28;20512;-71
2022/08/22 09:36:49;;;;;;;12.15;3.30;;;20.30;99.90;;;;;;5033557;28;20179;-71
2022/08/22 09:39:14;;;;;;;10.80;2.90;;;20.20;99.90;;;;;;4982698;28;20114;-71
2022/08/22 09:42:20;;;;;;;11.55;3.05;;;20.20;99.90;;;;;;5046649;28;20521;-71
2022/08/22 09:45:10;;;;;;;12.05;3.40;;;20.30;99.90;;;;;;5031870;28;20038;-71
2022/08/22 09:48:02;;;;;;;8.57;2.42;;;20.40;99.90;;;;;;5036570;28;20121;-71
2022/08/22 09:50:44;;;;;;;;;;;20.40;99.90;;;;;;5025772;28;20106;-71
2022/08/22 09:53:35;;;;;;;8.70;2.83;;;20.60;99.90;;;;;;5073470;28;19971;-71
2022/08/22 09:56:09;;;;;;;13.88;3.20;;;20.70;99.90;;;;;;5045157;28;20045;-71
2022/08/22 09:59:10;;;;;;;11.05;2.70;;;20.70;99.90;;;;;;5037760;28;20040;-72
2022/08/22 10:01:59;;;;;;;12.02;2.70;;;20.80;99.90;;;;;;5075878;28;20393;-71
2022/08/22 10:04:46;;;;;;;9.73;2.45;;;20.80;99.90;;;;;;5059954;28;20040;-71
2022/08/22 10:08:01;;;;;;;9.02;2.60;;;20.80;99.90;;;;;;5048490;28;20067;-71
2022/08/22 10:10:54;;;;;;;9.30;3.30;;;20.70;99.90;;;;;;4969838;28;20049;-71
2022/08/22 10:13:46;;;;;;;10.88;2.63;;;20.70;99.90;;;;;;4989096;28;20058;-71
2022/08/22 10:16:25;;;;;;;12.57;3.00;;;20.70;99.90;;;;;;5003982;28;20098;-71
2022/08/22 10:19:09;;;;;;;9.75;2.78;;;20.80;99.90;;;;;;5031691;28;20037;-71
2022/08/22 10:22:09;;;;;;;9.20;2.42;;;20.70;99.90;;;;;;5030627;28;20532;-72
2022/08/22 10:24:41;;;;;;;9.13;2.55;;;20.80;99.90;;;;;;5047903;28;20037;-71
2022/08/22 10:27:14;;;;;;;9.35;2.22;;;20.90;99.90;;;;;;5024257;28;20040;-71
2022/08/22 10:30:02;;;;;;;10.40;2.42;;;20.90;99.90;;;;;;5030879;28;20433;-71
2022/08/22 10:32:43;;;;;;;8.93;2.30;;;21.00;99.90;;;;;;5028432;28;20517;-72
2022/08/22 10:35:15;;;;;;;10.38;2.60;;;21.00;99.90;;;;;;5044330;28;20140;-71
2022/08/22 10:37:58;;;;;;;8.15;2.38;;;21.10;99.90;;;;;;5046477;28;20083;-71
2022/08/22 10:40:52;;;;;;;12.15;2.40;;;21.10;99.90;;;;;;5052002;28;20489;-72
2022/08/22 10:43:29;;;;;;;7.10;2.38;;;21.10;99.90;;;;;;5016442;28;20124;-71
2022/08/22 10:46:05;;;;;;;7.22;2.28;;;21.10;99.90;;;;;;5043646;28;20034;-71
2022/08/22 10:48:47;;;;;;;7.57;2.30;;;21.20;99.90;;;;;;5052043;28;20121;-72
2022/08/22 10:51:39;;;;;;;8.18;3.85;;;21.20;99.90;;;;;;5033819;28;20041;-71
2022/08/22 10:54:27;;;;;;;9.90;2.70;;;21.10;99.90;;;;;;5042225;28;20515;-71
2022/08/22 10:57:16;;;;;;;10.48;2.75;;;21.20;99.90;;;;;;5051625;28;20098;-71
2022/08/22 10:59:52;;;;;;;7.70;2.35;;;21.20;99.90;;;;;;5037400;28;20441;-71
2022/08/22 11:02:35;;;;;;;13.43;3.22;;;21.20;99.90;;;;;;5067572;28;20086;-71
2022/08/22 11:05:21;;;;;;;7.35;2.50;;;21.20;99.90;;;;;;5068346;28;20037;-71
2022/08/22 11:08:17;;;;;;;9.23;2.47;;;21.20;99.90;;;;;;5050342;28;20072;-72
2022/08/22 11:11:00;;;;;;;10.25;2.40;;;21.20;99.90;;;;;;5049560;28;20493;-71
2022/08/22 11:13:50;;;;;;;8.40;2.63;;;21.30;99.90;;;;;;5015845;28;20060;-71
2022/08/22 11:16:40;;;;;;;9.30;2.22;;;21.30;99.90;;;;;;5043370;28;20049;-71
2022/08/22 11:19:14;;;;;;;14.48;3.03;;;21.30;99.90;;;;;;5061026;28;20056;-72
2022/08/22 11:22:18;;;;;;;6.80;2.10;;;21.30;99.90;;;;;;5071034;28;20044;-71
2022/08/22 11:25:12;;;;;;;10.27;2.55;;;21.40;99.90;;;;;;5060820;28;20568;-71
2022/08/22 11:27:46;;;;;;;9.10;2.17;;;21.40;99.90;;;;;;5061518;28;20079;-71
2022/08/22 11:30:17;;;;;;;10.18;2.53;;;21.50;99.90;;;;;;5053103;28;20401;-71
2022/08/22 11:32:58;;;;;;;7.55;2.35;;;21.60;99.90;;;;;;5050050;28;20127;-71
2022/08/22 11:35:35;;;;;;;9.00;2.22;;;21.70;99.90;;;;;;5031877;28;20401;-72
2022/08/22 11:38:15;;;;;;;8.52;2.45;;;21.80;99.90;;;;;;5051143;28;20037;-72
2022/08/22 11:40:58;;;;;;;10.95;2.70;;;21.90;99.90;;;;;;5042507;28;20115;-71
2022/08/22 11:43:31;;;;;;;8.63;2.50;;;21.80;99.90;;;;;;5051131;28;20367;-71
2022/08/22 11:45:59;;;;;;;10.48;2.45;;;21.90;99.90;;;;;;5028969;28;20037;-71
2022/08/22 11:48:50;;;;;;;9.38;2.72;;;22.00;99.90;;;;;;5035354;28;20123;-71
2022/08/22 11:51:47;;;;;;;7.15;2.20;;;22.10;99.90;;;;;;5019550;28;20112;-71
2022/08/22 11:54:29;;;;;;;8.85;2.05;;;22.10;99.90;;;;;;5065440;28;20108;-71
2022/08/22 11:57:16;;;;;;;6.78;1.75;;;22.00;99.90;;;;;;5053817;28;20081;-71
2022/08/22 11:59:41;;;;;;;10.50;2.17;;;22.00;99.90;;;;;;5030624;28;20090;-72
2022/08/22 12:02:48;;;;;;;7.97;2.05;;;22.00;99.90;;;;;;5038290;28;20037;-71
2022/08/22 12:06:06;;;;;;;7.80;2.08;;;21.90;99.90;;;;;;5048583;28;22588;-71
2022/08/22 12:08:57;;;;;;;9.93;2.15;;;21.90;99.90;;;;;;5018767;28;20073;-71
2022/08/22 12:11:42;;;;;;;10.25;2.20;;;21.90;99.90;;;;;;5046037;28;20041;-72
2022/08/22 12:14:25;;;;;;;8.40;2.22;;;21.80;99.90;;;;;;5063003;28;20386;-71
2022/08/22 12:17:11;;;;;;;10.18;2.33;;;21.80;99.90;;;;;;5053878;28;20092;-72
2022/08/22 12:19:54;;;;;;;10.20;2.63;;;21.80;99.90;;;;;;5049768;28;20041;-71
2022/08/22 12:22:51;;;;;;;9.93;2.63;;;21.80;99.90;;;;;;5052460;28;20488;-71
2022/08/22 12:25:25;;;;;;;6.35;2.20;;;21.80;99.90;;;;;;5048432;28;20040;-71
2022/08/22 12:28:10;;;;;;;8.73;2.25;;;21.90;99.90;;;;;;5041226;28;20041;-71
2022/08/22 12:30:48;;;;;;;8.95;2.45;;;21.90;99.90;;;;;;5018193;28;20441;-71
2022/08/22 12:33:26;;;;;;;11.20;3.13;;;22.00;99.90;;;;;;5050931;28;20042;-71
2022/08/22 12:36:10;;;;;;;7.10;2.00;;;22.10;99.90;;;;;;5035500;28;20045;-71
2022/08/22 12:38:37;;;;;;;9.45;2.60;;;22.20;99.90;;;;;;5050742;28;20124;-71
2022/08/22 12:41:26;;;;;;;9.00;2.35;;;22.30;99.90;;;;;;5060201;28;20053;-71
2022/08/22 12:44:24;;;;;;;8.52;2.40;;;22.40;99.90;;;;;;5047064;28;20041;-71
2022/08/22 12:47:07;;;;;;;8.23;2.45;;;22.30;99.90;;;;;;5050020;28;20086;-72
2022/08/22 12:49:59;;;;;;;11.73;2.40;;;22.20;99.90;;;;;;5052617;28;20041;-72
2022/08/22 12:52:45;;;;;;;;;;;22.20;99.90;;;;;;5054328;28;20540;-72
2022/08/22 12:55:31;;;;;;;7.53;2.40;;;22.20;99.90;;;;;;5019071;28;19917;-71
2022/08/22 12:58:22;;;;;;;9.30;2.42;;;22.10;99.90;;;;;;5040641;28;20029;-71
2022/08/22 13:00:48;;;;;;;7.50;2.42;;;22.00;99.90;;;;;;5053420;28;20381;-71
2022/08/22 13:03:28;;;;;;;10.25;2.55;;;22.10;99.90;;;;;;5053168;28;20552;-71
2022/08/22 13:05:56;;;;;;;7.90;2.45;;;22.10;99.90;;;;;;5055497;28;20120;-71
2022/08/22 13:08:34;;;;;;;8.35;2.55;;;22.20;99.90;;;;;;5025355;28;20041;-71
2022/08/22 13:11:11;;;;;;;7.93;2.72;;;22.20;99.90;;;;;;5049530;28;20120;-71
2022/08/22 13:13:43;;;;;;;10.48;2.92;;;22.30;99.90;;;;;;5038936;28;20095;-71
2022/08/22 13:16:14;;;;;;;8.95;2.63;;;22.30;99.90;;;;;;5043498;28;20075;-72
2022/08/22 13:18:58;;;;;;;10.00;2.40;;;22.40;99.90;;;;;;5055984;28;20584;-70
2022/08/22 13:21:31;;;;;;;8.60;3.08;;;22.40;99.90;;;;;;5032539;28;20029;-70
2022/08/22 13:24:04;;;;;;;8.40;2.70;;;22.40;99.90;;;;;;5035838;28;20485;-71
2022/08/22 13:26:31;;;;;;;8.10;2.47;;;22.40;99.90;;;;;;5036128;28;20532;-71
2022/08/22 13:29:03;;;;;;;8.32;3.03;;;22.40;99.90;;;;;;5052548;28;20036;-70
2022/08/22 13:31:35;;;;;;;8.90;2.20;;;22.30;99.90;;;;;;5036349;28;20045;-74
2022/08/22 13:34:05;;;;;;;10.25;2.90;;;22.20;99.90;;;;;;5052235;28;20033;-74
2022/08/22 13:36:41;;;;;;;11.45;3.00;;;22.30;99.90;;;;;;5047887;28;20085;-74
2022/08/22 13:39:16;;;;;;;9.15;2.67;;;22.30;99.90;;;;;;5056031;28;20041;-75
2022/08/22 13:41:54;;;;;;;10.40;2.70;;;22.40;99.90;;;;;;5072577;28;20033;-73
2022/08/22 13:44:22;;;;;;;7.22;2.47;;;22.40;99.90;;;;;;5072365;28;20032;-70
2022/08/22 13:46:49;;;;;;;7.95;2.33;;;22.50;99.90;;;;;;5058603;28;20050;-71
2022/08/22 13:49:30;;;;;;;10.57;3.08;;;22.50;99.90;;;;;;5050892;28;20045;-71
2022/08/22 13:52:13;;;;;;;10.27;2.87;;;22.60;99.90;;;;;;5018329;28;20041;-71
2022/08/22 13:54:51;;;;;;;10.63;2.72;;;22.60;99.90;;;;;;5030465;28;20045;-71
2022/08/22 13:57:30;;;;;;;9.43;3.08;;;22.80;99.90;;;;;;5055599;28;20048;-71
2022/08/22 14:00:28;;;;;;;11.27;3.15;;;22.80;99.90;;;;;;5042857;28;20041;-71